createdAt,value
2022-10-05T00:00:45.451Z,7.32
2022-10-05T00:01:45.422Z,7.33
2022-10-05T00:02:45.382Z,7.31
2022-10-05T00:03:45.378Z,7.29
2022-10-05T00:04:45.420Z,7.25
2022-10-05T00:05:45.357Z,7.28
2022-10-05T00:06:45.604Z,7.25
2022-10-05T00:07:45.322Z,7.25
2022-10-05T00:08:48.314Z,7.25
2022-10-05T00:09:45.326Z,7.25
2022-10-05T00:10:45.294Z,7.28
2022-10-05T00:11:45.315Z,7.25
2022-10-05T00:12:45.283Z,7.24
2022-10-05T00:13:45.255Z,7.24
2022-10-05T00:14:45.255Z,7.25
2022-10-05T00:15:45.253Z,7.24
2022-10-05T00:16:45.568Z,7.23
2022-10-05T00:17:45.222Z,7.18
2022-10-05T00:18:45.213Z,7.21
2022-10-05T00:19:45.203Z,7.15
2022-10-05T00:20:45.193Z,7.15
2022-10-05T00:21:45.206Z,7.14
2022-10-05T00:22:45.175Z,7.11
2022-10-05T00:23:48.168Z,7.13
2022-10-05T00:24:45.166Z,7.11
2022-10-05T00:25:45.139Z,7.13
2022-10-05T00:26:45.479Z,7.14
2022-10-05T00:27:46.119Z,7.13
2022-10-05T00:28:45.107Z,7.11
2022-10-05T00:29:45.099Z,7.10
2022-10-05T00:30:45.080Z,7.10
2022-10-05T00:31:45.225Z,7.10
2022-10-05T00:32:45.128Z,7.07
2022-10-05T00:33:45.066Z,7.07
2022-10-05T00:34:45.050Z,7.06
2022-10-05T00:35:45.030Z,7.05
2022-10-05T00:36:45.459Z,7.03
2022-10-05T00:37:45.026Z,7.03
2022-10-05T00:38:48.001Z,7.02
2022-10-05T00:39:45.010Z,7.02
2022-10-05T00:40:44.980Z,7.00
2022-10-05T00:41:44.982Z,6.99
2022-10-05T00:42:44.972Z,7.00
2022-10-05T00:43:44.995Z,6.97
2022-10-05T00:44:44.947Z,6.99
2022-10-05T00:45:45.000Z,6.96
2022-10-05T00:46:45.144Z,6.97
2022-10-05T00:47:44.910Z,6.95
2022-10-05T00:48:44.899Z,6.93
2022-10-05T00:49:44.890Z,6.95
2022-10-05T00:50:44.881Z,6.92
2022-10-05T00:51:44.869Z,6.93
2022-10-05T00:52:44.862Z,6.89
2022-10-05T00:53:47.860Z,6.89
2022-10-05T00:54:44.874Z,6.88
2022-10-05T00:55:44.823Z,6.88
2022-10-05T00:56:45.168Z,6.87
2022-10-05T00:57:44.824Z,6.87
2022-10-05T00:58:44.804Z,6.87
2022-10-05T00:59:44.875Z,6.88
2022-10-05T01:00:44.873Z,6.87
2022-10-05T01:01:44.778Z,6.85
2022-10-05T01:02:44.813Z,6.84
2022-10-05T01:03:44.762Z,6.82
2022-10-05T01:04:44.734Z,6.82
2022-10-05T01:05:44.725Z,6.82
2022-10-05T01:06:44.935Z,6.79
2022-10-05T01:07:44.715Z,6.79
2022-10-05T01:08:47.696Z,6.79
2022-10-05T01:09:44.704Z,6.79
2022-10-05T01:10:44.718Z,6.79
2022-10-05T01:11:44.669Z,6.79
2022-10-05T01:12:44.657Z,6.79
2022-10-05T01:13:44.644Z,6.78
2022-10-05T01:14:44.634Z,6.78
2022-10-05T01:15:44.625Z,6.78
2022-10-05T01:16:45.100Z,6.77
2022-10-05T01:17:44.618Z,6.77
2022-10-05T01:18:44.597Z,6.77
2022-10-05T01:19:44.617Z,6.78
2022-10-05T01:20:44.571Z,6.75
2022-10-05T01:21:44.565Z,6.74
2022-10-05T01:22:44.557Z,6.75
2022-10-05T01:23:47.546Z,6.75
2022-10-05T01:24:44.660Z,6.74
2022-10-05T01:25:44.520Z,6.75
2022-10-05T01:26:44.829Z,6.74
2022-10-05T01:27:44.499Z,6.75
2022-10-05T01:28:44.488Z,6.75
2022-10-05T01:29:44.497Z,6.75
2022-10-05T01:30:44.478Z,6.72
2022-10-05T01:31:44.494Z,6.70
2022-10-05T01:32:44.460Z,6.67
2022-10-05T01:33:44.501Z,6.66
2022-10-05T01:34:44.455Z,6.66
2022-10-05T01:35:44.421Z,6.66
2022-10-05T01:36:44.696Z,6.66
2022-10-05T01:37:44.429Z,6.66
2022-10-05T01:38:47.392Z,6.64
2022-10-05T01:39:44.399Z,6.64
2022-10-05T01:40:44.373Z,6.62
2022-10-05T01:41:44.370Z,6.63
2022-10-05T01:42:44.352Z,6.63
2022-10-05T01:43:44.340Z,6.62
2022-10-05T01:44:44.339Z,6.63
2022-10-05T01:45:44.351Z,6.63
2022-10-05T01:46:44.606Z,6.62
2022-10-05T01:47:44.294Z,6.63
2022-10-05T01:48:44.393Z,6.63
2022-10-05T01:49:44.279Z,6.63
2022-10-05T01:50:44.273Z,6.62
2022-10-05T01:51:44.294Z,6.62
2022-10-05T01:52:44.244Z,6.62
2022-10-05T01:53:47.271Z,6.62
2022-10-05T01:54:44.245Z,6.62
2022-10-05T01:55:44.219Z,6.60
2022-10-05T01:56:44.590Z,6.59
2022-10-05T01:57:44.209Z,6.62
2022-10-05T01:58:44.184Z,6.60
2022-10-05T01:59:44.184Z,6.59
2022-10-05T02:00:44.197Z,6.57
2022-10-05T02:01:44.154Z,6.57
2022-10-05T02:02:44.224Z,6.56
2022-10-05T02:03:44.135Z,6.56
2022-10-05T02:05:01.370Z,6.52
2022-10-05T02:05:45.106Z,6.49
2022-10-05T02:06:44.429Z,6.46
2022-10-05T02:07:44.096Z,6.49
2022-10-05T02:08:47.085Z,6.48
2022-10-05T02:09:44.085Z,6.45
2022-10-05T02:10:44.056Z,6.46
2022-10-05T02:11:44.057Z,6.46
2022-10-05T02:12:44.058Z,6.46
2022-10-05T02:13:44.047Z,6.48
2022-10-05T02:14:44.028Z,6.48
2022-10-05T02:15:44.100Z,6.46
2022-10-05T02:16:44.349Z,6.45
2022-10-05T02:17:43.999Z,6.45
2022-10-05T02:18:43.978Z,6.45
2022-10-05T02:19:43.967Z,6.44
2022-10-05T02:20:43.962Z,6.44
2022-10-05T02:21:43.956Z,6.45
2022-10-05T02:22:43.938Z,6.44
2022-10-05T02:23:46.933Z,6.44
2022-10-05T02:24:43.928Z,6.44
2022-10-05T02:25:43.911Z,6.44
2022-10-05T02:26:44.384Z,6.42
2022-10-05T02:27:43.890Z,6.39
2022-10-05T02:28:43.881Z,6.36
2022-10-05T02:29:43.872Z,6.36
2022-10-05T02:30:43.852Z,6.36
2022-10-05T02:31:43.900Z,6.35
2022-10-05T02:32:43.838Z,6.36
2022-10-05T02:33:43.820Z,6.35
2022-10-05T02:34:43.820Z,6.35
2022-10-05T02:35:43.801Z,6.35
2022-10-05T02:36:44.113Z,6.36
2022-10-05T02:37:43.812Z,6.35
2022-10-05T02:38:46.773Z,6.35
2022-10-05T02:39:43.791Z,6.36
2022-10-05T02:40:43.750Z,6.33
2022-10-05T02:41:43.745Z,6.33
2022-10-05T02:42:43.834Z,6.31
2022-10-05T02:43:43.723Z,6.30
2022-10-05T02:44:43.743Z,6.30
2022-10-05T02:45:43.724Z,6.30
2022-10-05T02:46:43.916Z,6.28
2022-10-05T02:47:44.686Z,6.27
2022-10-05T02:48:43.696Z,6.27
2022-10-05T02:49:43.654Z,6.27
2022-10-05T02:50:43.656Z,6.27
2022-10-05T02:51:43.643Z,6.26
2022-10-05T02:52:43.625Z,6.24
2022-10-05T02:53:46.674Z,6.24
2022-10-05T02:54:43.623Z,6.26
2022-10-05T02:55:43.597Z,6.24
2022-10-05T02:56:44.001Z,6.24
2022-10-05T02:57:43.581Z,6.22
2022-10-05T02:58:43.563Z,6.20
2022-10-05T02:59:43.559Z,6.20
2022-10-05T03:00:43.613Z,6.19
2022-10-05T03:01:43.609Z,6.19
2022-10-05T03:02:43.517Z,6.19
2022-10-05T03:03:43.507Z,6.17
2022-10-05T03:04:43.538Z,6.17
2022-10-05T03:05:43.496Z,6.16
2022-10-05T03:06:43.829Z,6.16
2022-10-05T03:07:43.477Z,6.14
2022-10-05T03:08:46.465Z,6.16
2022-10-05T03:09:43.468Z,6.14
2022-10-05T03:10:43.437Z,6.14
2022-10-05T03:11:43.435Z,6.12
2022-10-05T03:12:43.428Z,6.09
2022-10-05T03:13:43.418Z,6.09
2022-10-05T03:14:43.400Z,6.09
2022-10-05T03:15:43.445Z,6.07
2022-10-05T03:16:43.753Z,6.07
2022-10-05T03:17:43.378Z,6.07
2022-10-05T03:18:43.358Z,6.07
2022-10-05T03:19:43.352Z,6.07
2022-10-05T03:20:43.338Z,6.07
2022-10-05T03:21:43.338Z,6.05
2022-10-05T03:22:43.311Z,6.04
2022-10-05T03:23:46.312Z,6.02
2022-10-05T03:24:43.314Z,6.02
2022-10-05T03:25:43.290Z,6.02
2022-10-05T03:26:43.602Z,6.02
2022-10-05T03:27:43.270Z,6.02
2022-10-05T03:28:43.249Z,6.01
2022-10-05T03:29:43.239Z,5.97
2022-10-05T03:30:43.234Z,5.97
2022-10-05T03:31:43.230Z,5.99
2022-10-05T03:32:43.210Z,5.98
2022-10-05T03:33:43.201Z,5.98
2022-10-05T03:34:43.193Z,5.99
2022-10-05T03:35:43.194Z,5.98
2022-10-05T03:36:43.473Z,6.02
2022-10-05T03:37:43.218Z,6.04
2022-10-05T03:38:46.151Z,6.07
2022-10-05T03:39:43.163Z,6.09
2022-10-05T03:40:43.123Z,6.11
2022-10-05T03:41:43.130Z,6.12
2022-10-05T03:42:43.144Z,6.11
2022-10-05T03:43:43.100Z,6.11
2022-10-05T03:44:43.087Z,6.11
2022-10-05T03:45:43.085Z,6.08
2022-10-05T03:46:43.089Z,6.08
2022-10-05T03:47:43.057Z,6.08
2022-10-05T03:48:43.045Z,6.07
2022-10-05T03:49:43.035Z,6.05
2022-10-05T03:50:43.024Z,6.05
2022-10-05T03:51:43.015Z,6.05
2022-10-05T03:52:43.005Z,6.07
2022-10-05T03:53:46.037Z,6.05
2022-10-05T03:54:43.005Z,6.05
2022-10-05T03:55:42.977Z,6.05
2022-10-05T03:56:43.061Z,6.04
2022-10-05T03:57:42.957Z,6.04
2022-10-05T03:58:42.949Z,6.04
2022-10-05T03:59:42.949Z,6.04
2022-10-05T04:00:42.929Z,6.02
2022-10-05T04:01:43.021Z,6.02
2022-10-05T04:02:42.945Z,6.04
2022-10-05T04:03:42.898Z,6.02
2022-10-05T04:04:42.919Z,6.02
2022-10-05T04:05:42.867Z,6.01
2022-10-05T04:06:42.897Z,6.01
2022-10-05T04:07:42.848Z,5.97
2022-10-05T04:08:47.979Z,5.98
2022-10-05T04:09:42.846Z,5.97
2022-10-05T04:10:42.820Z,5.94
2022-10-05T04:11:42.799Z,5.93
2022-10-05T04:12:42.799Z,5.94
2022-10-05T04:13:42.780Z,5.93
2022-10-05T04:14:42.772Z,5.93
2022-10-05T04:15:42.827Z,5.93
2022-10-05T04:16:42.958Z,5.90
2022-10-05T04:17:42.747Z,5.93
2022-10-05T04:18:42.739Z,5.91
2022-10-05T04:19:42.724Z,5.93
2022-10-05T04:20:42.731Z,5.93
2022-10-05T04:21:42.700Z,5.91
2022-10-05T04:22:42.688Z,5.93
2022-10-05T04:23:45.674Z,5.93
2022-10-05T04:24:42.681Z,5.93
2022-10-05T04:25:42.662Z,5.93
2022-10-05T04:26:42.656Z,5.91
2022-10-05T04:27:42.631Z,5.91
2022-10-05T04:28:42.686Z,5.91
2022-10-05T04:29:42.613Z,5.90
2022-10-05T04:30:42.613Z,5.91
2022-10-05T04:31:42.680Z,5.89
2022-10-05T04:32:42.570Z,5.89
2022-10-05T04:33:42.583Z,5.89
2022-10-05T04:34:42.561Z,5.89
2022-10-05T04:35:42.551Z,5.87
2022-10-05T04:36:42.619Z,5.87
2022-10-05T04:37:46.336Z,5.87
2022-10-05T04:38:45.515Z,5.84
2022-10-05T04:39:42.529Z,5.83
2022-10-05T04:40:42.495Z,5.82
2022-10-05T04:41:42.484Z,5.80
2022-10-05T04:42:42.538Z,5.79
2022-10-05T04:43:42.465Z,5.79
2022-10-05T04:44:42.444Z,5.82
2022-10-05T04:45:42.457Z,5.80
2022-10-05T04:46:42.542Z,5.75
2022-10-05T04:47:42.415Z,5.76
2022-10-05T04:48:42.415Z,5.79
2022-10-05T04:49:42.407Z,5.76
2022-10-05T04:50:42.404Z,5.76
2022-10-05T04:51:42.383Z,5.76
2022-10-05T04:52:42.375Z,5.76
2022-10-05T04:53:45.386Z,5.76
2022-10-05T04:54:42.366Z,5.75
2022-10-05T04:55:42.352Z,5.73
2022-10-05T04:56:42.337Z,5.73
2022-10-05T04:57:42.266Z,5.73
2022-10-05T04:58:42.747Z,5.71
2022-10-05T04:59:42.293Z,5.69
2022-10-05T05:00:42.341Z,5.69
2022-10-05T05:01:42.279Z,5.69
2022-10-05T05:02:42.267Z,5.69
2022-10-05T05:03:42.298Z,5.69
2022-10-05T05:04:42.184Z,5.71
2022-10-05T05:06:05.061Z,5.69
2022-10-05T05:06:43.396Z,5.71
2022-10-05T05:07:42.162Z,5.71
2022-10-05T05:08:45.160Z,5.69
2022-10-05T05:09:42.151Z,5.69
2022-10-05T05:10:42.132Z,5.69
2022-10-05T05:11:42.118Z,5.68
2022-10-05T05:12:42.119Z,5.69
2022-10-05T05:13:42.090Z,5.69
2022-10-05T05:14:42.132Z,5.71
2022-10-05T05:15:42.107Z,5.69
2022-10-05T05:16:42.061Z,5.68
2022-10-05T05:17:42.062Z,5.69
2022-10-05T05:18:42.040Z,5.66
2022-10-05T05:19:42.033Z,5.69
2022-10-05T05:20:42.027Z,5.68
2022-10-05T05:21:42.024Z,5.66
2022-10-05T05:22:42.000Z,5.65
2022-10-05T05:23:44.991Z,5.64
2022-10-05T05:24:41.999Z,5.66
2022-10-05T05:25:42.109Z,5.64
2022-10-05T05:26:41.951Z,5.64
2022-10-05T05:27:41.951Z,5.64
2022-10-05T05:28:41.939Z,5.62
2022-10-05T05:29:41.931Z,5.61
2022-10-05T05:30:42.019Z,5.64
2022-10-05T05:31:41.959Z,5.64
2022-10-05T05:32:41.893Z,5.64
2022-10-05T05:33:41.882Z,5.64
2022-10-05T05:34:41.873Z,5.66
2022-10-05T05:35:41.885Z,5.65
2022-10-05T05:36:41.864Z,5.66
2022-10-05T05:37:41.855Z,5.64
2022-10-05T05:38:44.824Z,5.66
2022-10-05T05:39:41.846Z,5.68
2022-10-05T05:40:41.816Z,5.69
2022-10-05T05:41:41.805Z,5.69
2022-10-05T05:42:41.828Z,5.72
2022-10-05T05:43:41.776Z,5.71
2022-10-05T05:44:41.767Z,5.72
2022-10-05T05:45:41.769Z,5.73
2022-10-05T05:47:42.777Z,5.72
2022-10-05T05:48:41.726Z,5.71
2022-10-05T05:49:41.717Z,5.69
2022-10-05T05:50:41.716Z,5.71
2022-10-05T05:51:41.693Z,5.73
2022-10-05T05:52:41.685Z,5.72
2022-10-05T05:53:44.672Z,5.72
2022-10-05T05:54:41.687Z,5.75
2022-10-05T05:55:41.655Z,5.75
2022-10-05T05:56:41.656Z,5.76
2022-10-05T05:57:41.738Z,5.75
2022-10-05T05:58:41.622Z,5.76
2022-10-05T05:59:41.608Z,5.80
2022-10-05T06:00:41.601Z,5.83
2022-10-05T06:01:44.486Z,5.86
2022-10-05T06:02:41.705Z,5.87
2022-10-05T06:03:41.576Z,5.91
2022-10-05T06:04:41.559Z,5.93
2022-10-05T06:05:41.579Z,5.97
2022-10-05T06:06:41.538Z,5.98
2022-10-05T06:07:41.536Z,5.99
2022-10-05T06:08:44.523Z,6.02
2022-10-05T06:09:41.518Z,6.07
2022-10-05T06:10:41.559Z,6.09
2022-10-05T06:11:41.480Z,6.12
2022-10-05T06:12:41.488Z,6.16
2022-10-05T06:13:41.473Z,6.16
2022-10-05T06:14:41.459Z,6.19
2022-10-05T06:15:41.483Z,6.20
2022-10-05T06:16:41.500Z,6.22
2022-10-05T06:17:41.420Z,6.26
2022-10-05T06:18:41.410Z,6.27
2022-10-05T06:19:41.404Z,6.27
2022-10-05T06:20:41.389Z,6.28
2022-10-05T06:21:41.381Z,6.31
2022-10-05T06:22:41.370Z,6.33
2022-10-05T06:23:44.354Z,6.35
2022-10-05T06:24:41.364Z,6.36
2022-10-05T06:25:41.343Z,6.39
2022-10-05T06:26:41.328Z,6.42
2022-10-05T06:27:41.344Z,6.41
2022-10-05T06:28:41.504Z,6.41
2022-10-05T06:29:41.292Z,6.42
2022-10-05T06:30:41.286Z,6.44
2022-10-05T06:31:41.336Z,6.45
2022-10-05T06:32:41.301Z,6.45
2022-10-05T06:33:41.252Z,6.46
2022-10-05T06:34:41.254Z,6.48
2022-10-05T06:35:41.242Z,6.49
2022-10-05T06:36:41.224Z,6.51
2022-10-05T06:37:41.254Z,6.54
2022-10-05T06:38:44.209Z,6.54
2022-10-05T06:39:41.205Z,6.57
2022-10-05T06:40:41.196Z,6.59
2022-10-05T06:41:41.172Z,6.63
2022-10-05T06:42:41.160Z,6.70
2022-10-05T06:43:41.153Z,6.77
2022-10-05T06:44:41.135Z,6.79
2022-10-05T06:45:41.185Z,6.85
2022-10-05T06:46:41.118Z,6.93
2022-10-05T06:47:41.103Z,7.03
2022-10-05T06:48:41.127Z,7.11
2022-10-05T06:49:41.085Z,7.15
2022-10-05T06:50:41.085Z,7.20
2022-10-05T06:51:41.066Z,7.24
2022-10-05T06:52:41.050Z,7.28
2022-10-05T06:53:44.067Z,7.29
2022-10-05T06:54:41.054Z,7.40
2022-10-05T06:55:41.016Z,7.43
2022-10-05T06:56:41.030Z,7.56
2022-10-05T06:57:40.998Z,7.61
2022-10-05T06:58:41.023Z,7.69
2022-10-05T06:59:40.978Z,7.72
2022-10-05T07:00:40.977Z,7.75
2022-10-05T07:01:41.111Z,7.75
2022-10-05T07:02:40.989Z,7.83
2022-10-05T07:03:40.941Z,7.91
2022-10-05T07:04:40.922Z,8.00
2022-10-05T07:05:40.920Z,8.05
2022-10-05T07:06:40.901Z,8.13
2022-10-05T07:07:40.902Z,8.24
2022-10-05T07:08:43.979Z,8.30
2022-10-05T07:09:40.899Z,8.44
2022-10-05T07:10:40.869Z,8.49
2022-10-05T07:11:40.853Z,8.52
2022-10-05T07:12:40.872Z,8.55
2022-10-05T07:13:40.828Z,8.61
2022-10-05T07:14:40.821Z,8.64
2022-10-05T07:15:40.819Z,8.73
2022-10-05T07:16:40.828Z,8.81
2022-10-05T07:17:40.822Z,8.87
2022-10-05T07:18:40.779Z,9.03
2022-10-05T07:19:40.777Z,9.36
2022-10-05T07:20:42.727Z,9.74
2022-10-05T07:21:40.753Z,10.10
2022-10-05T07:22:40.736Z,10.44
2022-10-05T07:23:43.732Z,10.74
2022-10-05T07:24:40.736Z,11.10
2022-10-05T07:25:40.764Z,11.35
2022-10-05T07:26:40.745Z,11.59
2022-10-05T07:27:40.685Z,11.81
2022-10-05T07:28:40.755Z,12.03
2022-10-05T07:29:40.667Z,12.22
2022-10-05T07:30:40.700Z,12.43
2022-10-05T07:31:40.696Z,12.60
2022-10-05T07:32:40.637Z,12.78
2022-10-05T07:33:40.625Z,12.95
2022-10-05T07:34:40.628Z,13.09
2022-10-05T07:35:40.605Z,13.18
2022-10-05T07:36:40.704Z,13.23
2022-10-05T07:37:40.593Z,13.35
2022-10-05T07:38:43.577Z,13.44
2022-10-05T07:39:59.768Z,13.62
2022-10-05T07:40:41.573Z,13.77
2022-10-05T07:42:47.389Z,14.22
2022-10-05T07:44:00.906Z,14.32
2022-10-05T07:44:41.517Z,14.48
2022-10-05T07:45:40.544Z,14.50
2022-10-05T07:46:40.498Z,14.58
2022-10-05T07:47:40.577Z,14.63
2022-10-05T07:48:40.475Z,14.79
2022-10-05T07:49:40.460Z,14.92
2022-10-05T07:50:40.453Z,15.00
2022-10-05T07:52:40.459Z,15.14
2022-10-05T07:53:43.420Z,15.24
2022-10-05T07:54:40.432Z,15.39
2022-10-05T07:55:40.411Z,15.43
2022-10-05T07:56:40.397Z,15.51
2022-10-05T07:57:40.447Z,15.54
2022-10-05T07:58:40.370Z,15.58
2022-10-05T07:59:40.372Z,15.59
2022-10-05T08:00:40.351Z,15.65
2022-10-05T08:01:40.386Z,15.61
2022-10-05T08:02:40.434Z,15.51
2022-10-05T08:03:40.325Z,15.47
2022-10-05T08:04:41.855Z,15.58
2022-10-05T08:05:40.331Z,15.61
2022-10-05T08:06:40.421Z,15.61
2022-10-05T08:07:40.281Z,15.55
2022-10-05T08:08:43.271Z,15.54
2022-10-05T08:09:40.276Z,15.49
2022-10-05T08:10:40.296Z,15.35
2022-10-05T08:11:40.224Z,15.25
2022-10-05T08:12:40.224Z,15.43
2022-10-05T08:13:40.217Z,15.62
2022-10-05T08:14:40.193Z,15.82
2022-10-05T08:15:40.222Z,16.01
2022-10-05T08:16:40.183Z,16.17
2022-10-05T08:17:40.186Z,16.16
2022-10-05T08:18:40.165Z,16.08
2022-10-05T08:19:40.161Z,15.97
2022-10-05T08:20:40.145Z,15.94
2022-10-05T08:21:40.217Z,15.97
2022-10-05T08:22:40.133Z,15.97
2022-10-05T08:23:43.126Z,16.04
2022-10-05T08:24:40.137Z,16.09
2022-10-05T08:25:40.087Z,16.16
2022-10-05T08:26:40.088Z,16.28
2022-10-05T08:27:40.089Z,16.32
2022-10-05T08:28:40.117Z,16.31
2022-10-05T08:29:40.055Z,16.32
2022-10-05T08:30:40.047Z,16.31
2022-10-05T08:31:40.063Z,16.31
2022-10-05T08:32:40.018Z,16.32
2022-10-05T08:33:40.009Z,16.33
2022-10-05T08:34:40.000Z,16.39
2022-10-05T08:35:40.108Z,16.47
2022-10-05T08:36:39.982Z,16.61
2022-10-05T08:37:39.978Z,16.76
2022-10-05T08:38:42.972Z,16.97
2022-10-05T08:39:39.962Z,17.14
2022-10-05T08:40:39.941Z,17.26
2022-10-05T08:41:39.933Z,17.38
2022-10-05T08:42:39.921Z,17.42
2022-10-05T08:43:39.905Z,17.46
2022-10-05T08:44:39.901Z,17.57
2022-10-05T08:45:39.980Z,17.71
2022-10-05T08:46:39.935Z,17.57
2022-10-05T08:47:39.864Z,17.45
2022-10-05T08:48:39.846Z,17.48
2022-10-05T08:49:39.844Z,17.59
2022-10-05T08:50:39.825Z,17.59
2022-10-05T08:51:39.835Z,17.68
2022-10-05T08:52:39.805Z,17.85
2022-10-05T08:53:42.800Z,17.92
2022-10-05T08:54:39.795Z,18.00
2022-10-05T08:55:39.776Z,17.98
2022-10-05T08:56:39.796Z,17.97
2022-10-05T08:57:39.768Z,18.04
2022-10-05T08:58:39.747Z,18.13
2022-10-05T08:59:39.737Z,18.18
2022-10-05T09:00:39.748Z,18.25
2022-10-05T09:01:39.755Z,18.35
2022-10-05T09:02:39.778Z,18.47
2022-10-05T09:03:39.857Z,18.60
2022-10-05T09:04:39.781Z,18.77
2022-10-05T09:05:39.672Z,18.74
2022-10-05T09:06:39.651Z,18.65
2022-10-05T09:07:39.675Z,18.65
2022-10-05T09:08:42.640Z,18.63
2022-10-05T09:09:39.679Z,18.58
2022-10-05T09:10:39.626Z,18.59
2022-10-05T09:11:39.610Z,18.65
2022-10-05T09:12:39.595Z,18.66
2022-10-05T09:13:39.592Z,18.77
2022-10-05T09:14:39.681Z,18.83
2022-10-05T09:15:40.588Z,18.73
2022-10-05T09:16:39.564Z,18.81
2022-10-05T09:17:39.606Z,18.89
2022-10-05T09:18:39.532Z,18.89
2022-10-05T09:19:39.524Z,18.95
2022-10-05T09:20:39.515Z,18.99
2022-10-05T09:21:39.509Z,19.15
2022-10-05T09:22:39.485Z,19.31
2022-10-05T09:23:42.502Z,19.40
2022-10-05T09:24:39.486Z,19.41
2022-10-05T09:25:39.484Z,19.48
2022-10-05T09:26:39.458Z,19.54
2022-10-05T09:27:39.441Z,19.54
2022-10-05T09:28:39.460Z,19.62
2022-10-05T09:29:39.415Z,19.62
2022-10-05T09:30:39.448Z,19.55
2022-10-05T09:31:39.401Z,19.47
2022-10-05T09:32:39.387Z,19.34
2022-10-05T09:33:39.379Z,19.39
2022-10-05T09:34:39.398Z,19.41
2022-10-05T09:35:39.357Z,19.47
2022-10-05T09:36:39.348Z,19.62
2022-10-05T09:37:39.338Z,19.69
2022-10-05T09:39:39.520Z,19.95
2022-10-05T09:40:39.302Z,19.96
2022-10-05T09:41:39.298Z,19.96
2022-10-05T09:42:39.288Z,20.07
2022-10-05T09:43:39.270Z,20.03
2022-10-05T09:44:39.269Z,20.03
2022-10-05T09:45:39.248Z,20.07
2022-10-05T09:46:39.272Z,19.99
2022-10-05T09:47:39.230Z,19.95
2022-10-05T09:48:39.217Z,20.03
2022-10-05T09:49:39.209Z,20.13
2022-10-05T09:50:39.286Z,20.25
2022-10-05T09:51:39.184Z,20.22
2022-10-05T09:52:39.171Z,20.19
2022-10-05T09:53:42.185Z,20.21
2022-10-05T09:54:39.176Z,20.19
2022-10-05T09:55:39.298Z,20.22
2022-10-05T09:57:39.125Z,20.22
2022-10-05T09:58:39.113Z,20.29
2022-10-05T09:59:39.116Z,20.43
2022-10-05T10:00:39.097Z,20.48
2022-10-05T10:01:40.159Z,20.62
2022-10-05T10:02:39.175Z,20.70
2022-10-05T10:03:39.069Z,20.72
2022-10-05T10:04:47.083Z,20.69
2022-10-05T10:05:39.044Z,20.62
2022-10-05T10:06:39.071Z,20.58
2022-10-05T10:07:39.021Z,20.52
2022-10-05T10:08:42.013Z,20.50
2022-10-05T10:09:39.026Z,20.44
2022-10-05T10:10:39.020Z,20.50
2022-10-05T10:11:38.976Z,20.58
2022-10-05T10:12:38.977Z,20.66
2022-10-05T10:13:38.968Z,20.75
2022-10-05T10:14:38.956Z,20.88
2022-10-05T10:15:39.119Z,21.03
2022-10-05T10:16:38.931Z,21.14
2022-10-05T10:17:38.913Z,21.24
2022-10-05T10:18:38.908Z,21.33
2022-10-05T10:19:38.903Z,21.40
2022-10-05T10:20:38.887Z,21.29
2022-10-05T10:21:38.868Z,21.20
2022-10-05T10:24:04.230Z,21.18
2022-10-05T10:25:02.233Z,21.12
2022-10-05T10:26:02.271Z,21.22
2022-10-05T10:27:10.544Z,21.24
2022-10-05T10:28:02.249Z,21.24
2022-10-05T10:29:02.190Z,21.20
2022-10-05T10:30:02.185Z,21.22
2022-10-05T10:31:02.211Z,21.20
2022-10-05T10:32:03.119Z,21.22
2022-10-05T10:33:02.152Z,21.29
2022-10-05T10:34:10.464Z,21.33
2022-10-05T10:35:02.128Z,21.37
2022-10-05T10:36:06.020Z,21.42
2022-10-05T10:37:05.130Z,21.54
2022-10-05T10:38:02.111Z,21.62
2022-10-05T10:39:02.118Z,21.66
2022-10-05T10:40:02.071Z,21.75
2022-10-05T10:41:02.062Z,21.73
2022-10-05T10:42:02.054Z,21.77
2022-10-05T10:43:02.052Z,21.77
2022-10-05T10:44:02.065Z,21.75
2022-10-05T10:45:02.032Z,21.77
2022-10-05T10:46:02.057Z,21.76
2022-10-05T10:47:02.004Z,21.55
2022-10-05T10:48:01.994Z,21.37
2022-10-05T10:49:02.019Z,21.42
2022-10-05T10:50:01.973Z,21.52
2022-10-05T10:51:01.966Z,21.64
2022-10-05T10:52:04.954Z,21.70
2022-10-05T10:53:01.964Z,21.67
2022-10-05T10:54:01.951Z,21.67
2022-10-05T10:55:01.919Z,21.64
2022-10-05T10:56:01.986Z,21.66
2022-10-05T10:57:01.914Z,21.67
2022-10-05T10:58:01.896Z,21.75
2022-10-05T10:59:01.890Z,21.83
2022-10-05T11:00:01.878Z,21.89
2022-10-05T11:01:01.862Z,21.93
2022-10-05T11:02:01.961Z,21.93
2022-10-05T11:03:01.908Z,21.95
2022-10-05T11:04:01.830Z,22.07
2022-10-05T11:05:01.817Z,22.13
2022-10-05T11:06:01.801Z,22.26
2022-10-05T11:07:04.851Z,22.23
2022-10-05T11:08:01.807Z,22.07
2022-10-05T11:09:01.781Z,22.02
2022-10-05T11:10:01.772Z,22.02
2022-10-05T11:11:01.751Z,21.95
2022-10-05T11:12:01.743Z,21.99
2022-10-05T11:13:01.743Z,22.10
2022-10-05T11:14:01.730Z,22.14
2022-10-05T11:15:01.723Z,22.26
2022-10-05T11:16:01.802Z,22.29
2022-10-05T11:17:01.687Z,22.28
2022-10-05T11:18:01.713Z,22.41
2022-10-05T11:19:01.676Z,22.45
2022-10-05T11:20:04.366Z,22.44
2022-10-05T11:21:01.679Z,22.47
2022-10-05T11:22:04.638Z,22.38
2022-10-05T11:23:01.656Z,22.32
2022-10-05T11:24:01.625Z,22.22
2022-10-05T11:25:01.615Z,22.20
2022-10-05T11:26:01.638Z,22.26
2022-10-05T11:27:01.587Z,22.26
2022-10-05T11:28:01.627Z,22.35
2022-10-05T11:29:01.577Z,22.47
2022-10-05T11:30:01.558Z,22.55
2022-10-05T11:31:01.630Z,22.65
2022-10-05T11:32:01.536Z,22.73
2022-10-05T11:33:01.520Z,22.73
2022-10-05T11:34:01.530Z,22.78
2022-10-05T11:35:01.508Z,22.81
2022-10-05T11:36:01.502Z,22.83
2022-10-05T11:37:04.634Z,22.90
2022-10-05T11:38:01.493Z,22.96
2022-10-05T11:39:01.462Z,22.83
2022-10-05T11:40:01.450Z,22.70
2022-10-05T11:41:01.442Z,22.62
2022-10-05T11:42:01.464Z,22.60
2022-10-05T11:43:01.422Z,22.72
2022-10-05T11:44:06.116Z,22.69
2022-10-05T11:45:01.398Z,22.83
2022-10-05T11:46:01.411Z,22.80
2022-10-05T11:47:01.387Z,22.83
2022-10-05T11:48:01.466Z,22.88
2022-10-05T11:49:01.363Z,22.90
2022-10-05T11:50:01.362Z,22.87
2022-10-05T11:51:01.369Z,22.76
2022-10-05T11:52:04.335Z,22.76
2022-10-05T11:53:01.329Z,22.81
2022-10-05T11:54:01.319Z,22.88
2022-10-05T11:55:16.648Z,22.90
2022-10-05T11:56:01.316Z,22.99
2022-10-05T11:57:01.701Z,23.06
2022-10-05T11:58:01.267Z,23.09
2022-10-05T11:59:01.260Z,23.18
2022-10-05T12:00:01.251Z,23.13
2022-10-05T12:01:01.272Z,23.00
2022-10-05T12:02:01.228Z,22.98
2022-10-05T12:03:01.283Z,22.78
2022-10-05T12:04:01.318Z,22.81
2022-10-05T12:05:01.212Z,22.75
2022-10-05T12:06:01.219Z,22.84
2022-10-05T12:07:04.173Z,22.85
2022-10-05T12:08:01.196Z,22.99
2022-10-05T12:09:01.155Z,23.02
2022-10-05T12:10:01.183Z,23.09
2022-10-05T12:11:01.132Z,23.15
2022-10-05T12:12:01.117Z,23.31
2022-10-05T12:13:01.469Z,23.44
2022-10-05T12:14:01.104Z,23.40
2022-10-05T12:15:01.084Z,23.39
2022-10-05T12:16:01.115Z,23.28
2022-10-05T12:17:01.077Z,23.34
2022-10-05T12:18:01.060Z,23.34
2022-10-05T12:19:01.053Z,23.44
2022-10-05T12:20:01.049Z,23.55
2022-10-05T12:22:04.009Z,23.66
2022-10-05T12:23:01.463Z,23.51
2022-10-05T12:24:00.994Z,23.50
2022-10-05T12:25:00.986Z,23.37
2022-10-05T12:26:01.009Z,23.24
2022-10-05T12:27:00.964Z,23.27
2022-10-05T12:28:01.002Z,23.40
2022-10-05T12:29:00.942Z,23.43
2022-10-05T12:30:00.919Z,23.39
2022-10-05T12:31:01.005Z,23.32
2022-10-05T12:32:00.910Z,23.25
2022-10-05T12:33:02.286Z,23.24
2022-10-05T12:34:00.892Z,23.39
2022-10-05T12:35:02.273Z,23.44
2022-10-05T12:36:00.894Z,23.54
2022-10-05T12:37:04.954Z,23.63
2022-10-05T12:38:00.867Z,23.62
2022-10-05T12:39:00.835Z,23.63
2022-10-05T12:40:00.836Z,23.65
2022-10-05T12:41:00.849Z,23.66
2022-10-05T12:42:00.795Z,23.77
2022-10-05T12:43:00.798Z,23.80
2022-10-05T12:44:00.795Z,23.83
2022-10-05T12:45:00.777Z,23.86
2022-10-05T12:46:00.785Z,23.91
2022-10-05T12:47:00.756Z,23.86
2022-10-05T12:48:00.772Z,23.81
2022-10-05T12:49:00.776Z,23.80
2022-10-05T12:50:00.772Z,23.77
2022-10-05T12:51:00.722Z,23.71
2022-10-05T12:52:03.711Z,23.69
2022-10-05T12:53:00.709Z,23.65
2022-10-05T12:54:00.685Z,23.73
2022-10-05T12:55:00.690Z,23.73
2022-10-05T12:56:00.662Z,23.68
2022-10-05T12:57:00.642Z,23.66
2022-10-05T12:58:00.663Z,23.77
2022-10-05T12:59:00.743Z,23.81
2022-10-05T13:00:00.740Z,23.84
2022-10-05T13:01:00.714Z,23.83
2022-10-05T13:02:00.621Z,23.83
2022-10-05T13:03:00.595Z,23.78
2022-10-05T13:04:00.606Z,23.80
2022-10-05T13:05:00.565Z,23.81
2022-10-05T13:06:02.776Z,23.81
2022-10-05T13:07:03.537Z,23.77
2022-10-05T13:08:00.556Z,23.71
2022-10-05T13:09:00.525Z,23.69
2022-10-05T13:10:00.511Z,23.76
2022-10-05T13:11:02.091Z,23.80
2022-10-05T13:12:00.494Z,23.83
2022-10-05T13:13:00.488Z,23.80
2022-10-05T13:14:00.480Z,23.77